Time;durP1;ratioP1;P1;durP2;ratioP2;P2;SDS_P1;SDS_P2;PMS_P1;PMS_P2;Temp;Humidity;BMP_temperature;BMP_pressure;BME280_temperature;BME280_humidity;BME280_pressure;Samples;Min_cycle;Max_cycle;Signal;HPM_P1;HPM_P2
2022/09/12 00:02:24;;;;;;;;;;;14.20;99.90;;;;;;4895405;29;19974;-60
2022/09/12 00:04:50;;;;;;;;;;;;;;;;;;4886118;29;19930;-61
2022/09/12 00:07:15;;;;;;;;;;;14.30;99.90;;;;;;4897689;29;20010;-61
2022/09/12 00:09:41;;;;;;;;;;;;;;;;;;4896322;29;20030;-61
2022/09/12 00:12:07;;;;;;;;;;;14.50;99.90;;;;;;4896619;29;19930;-61
2022/09/12 00:14:32;;;;;;;;;;;14.20;99.90;;;;;;4896291;29;19920;-61
2022/09/12 00:16:58;;;;;;;;;;;;;;;;;;4897392;29;19919;-60
2022/09/12 00:19:25;;;;;;;;;;;14.20;99.90;;;;;;4895790;29;20098;-61
2022/09/12 00:21:50;;;;;;;;;;;;;;;;;;4896896;29;20018;-61
2022/09/12 00:24:16;;;;;;;;;;;14.10;99.90;;;;;;4897449;29;19996;-60
2022/09/12 00:26:41;;;;;;;;;;;14.40;99.90;;;;;;4895661;29;20458;-60
2022/09/12 00:29:07;;;;;;;;;;;;;;;;;;4896136;29;19924;-61
2022/09/12 00:31:34;;;;;;;;;;;;;;;;;;4896635;29;20296;-61
2022/09/12 00:34:00;;;;;;;;;;;14.10;99.90;;;;;;4896119;29;19951;-60
2022/09/12 00:36:26;;;;;;;;;;;;;;;;;;4896406;29;20010;-60
2022/09/12 00:38:52;;;;;;;;;;;13.80;99.90;;;;;;4889162;29;20389;-61
2022/09/12 00:41:18;;;;;;;;;;;;;;;;;;4877808;29;19924;-61
2022/09/12 00:43:44;;;;;;;;;;;;;;;;;;4883150;29;19992;-61
2022/09/12 00:46:17;;;;;;;;;;;14.20;99.90;;;;;;4877780;29;20273;-61
2022/09/12 00:48:43;;;;;;;;;;;;;;;;;;4879034;29;20007;-61
2022/09/12 00:51:09;;;;;;;;;;;;;;;;;;4881278;29;19992;-61
2022/09/12 00:53:35;;;;;;;;;;;;;;;;;;4872987;29;19930;-61
2022/09/12 00:56:01;;;;;;;;;;;14.10;99.90;;;;;;4882915;29;19931;-61
2022/09/12 00:58:28;;;;;;;;;;;14.00;99.90;;;;;;4877871;29;19965;-61
2022/09/12 01:00:55;;;;;;;;;;;14.10;99.90;;;;;;4867645;29;19930;-61
2022/09/12 01:03:21;;;;;;;;;;;13.70;99.90;;;;;;4885583;29;19955;-61
2022/09/12 01:06:06;;;;;;;;;;;14.20;99.90;;;;;;4880091;29;19926;-61
2022/09/12 01:08:32;;;;;;;;;;;13.90;99.90;;;;;;4880921;29;19919;-61
2022/09/12 01:10:58;;;;;;;;;;;;;;;;;;4881877;29;19927;-61
2022/09/12 01:13:24;;;;;;;;;;;13.90;99.90;;;;;;4870984;29;19928;-61
2022/09/12 01:15:51;;;;;;;;;;;14.00;99.90;;;;;;4881326;29;20421;-61
2022/09/12 01:18:27;;;;;;;;;;;14.20;99.90;;;;;;4884070;29;19920;-61
2022/09/12 01:21:27;;;;;;;;;;;14.10;99.90;;;;;;4883746;29;19930;-61
2022/09/12 01:24:08;;;;;;;;;;;14.00;99.90;;;;;;4851595;29;20416;-61
2022/09/12 01:26:52;;;;;;;;;;;14.00;99.90;;;;;;4875828;29;19920;-61
2022/09/12 01:29:32;;;;;;;;;;;14.00;99.90;;;;;;4881486;29;19926;-61
2022/09/12 01:31:58;;;;;;;;;;;;;;;;;;4864622;29;19966;-61
2022/09/12 01:34:32;;;;;;;;;;;14.00;99.90;;;;;;4892120;29;19996;-61
2022/09/12 01:37:13;;;;;;;;;;;13.90;99.90;;;;;;4884888;29;19938;-61
2022/09/12 01:39:57;;;;;;;;;;;13.80;99.90;;;;;;4897293;29;19927;-61
2022/09/12 01:42:23;;;;;;;;;;;;;;;;;;4895432;29;19923;-61
2022/09/12 01:45:02;;;;;;;;;;;13.60;99.90;;;;;;4898670;29;19923;-61
2022/09/12 01:47:28;;;;;;;;;;;;;;;;;;4899393;29;20014;-61
2022/09/12 01:50:09;;;;;;;;;;;13.20;99.90;;;;;;4899725;29;20010;-60
2022/09/12 01:52:35;;;;;;;;;;;;;;;;;;4898427;29;19927;-61
2022/09/12 01:55:10;;;;;;;;;;;13.40;99.90;;;;;;4899216;29;19926;-61
2022/09/12 01:57:36;;;;;;;;;;;;;;;;;;4898660;29;19919;-60
2022/09/12 02:00:05;;;;;;;;;;;13.80;99.90;;;;;;4899534;29;19919;-60
2022/09/12 02:02:31;;;;;;;;;;;;;;;;;;4898928;29;19920;-61
2022/09/12 02:05:01;;;;;;;;;;;13.50;99.90;;;;;;4898921;29;20002;-61
2022/09/12 02:07:27;;;;;;;;;;;;;;;;;;4898498;29;19974;-60
2022/09/12 02:09:55;;;;;;;;;;;13.90;99.90;;;;;;4898236;29;19978;-60
2022/09/12 02:12:24;;;;;;;;;;;13.40;99.90;;;;;;4899901;29;19927;-60
2022/09/12 02:14:56;;;;;;;;;;;13.60;99.90;;;;;;4899050;29;19923;-60
2022/09/12 02:17:23;;;;;;;;;;;13.90;99.90;;;;;;4899389;29;19926;-60
2022/09/12 02:19:53;;;;;;;;;;;13.60;99.90;;;;;;4898241;29;20023;-61
2022/09/12 02:22:20;;;;;;;;;;;13.80;99.90;;;;;;4898754;29;19919;-60
2022/09/12 02:24:46;;;;;;;;;;;;;;;;;;4899236;29;20014;-61
2022/09/12 02:27:12;;;;;;;;;;;;;;;;;;4899333;29;19998;-60
2022/09/12 02:29:37;;;;;;;;;;;13.60;99.90;;;;;;4898213;29;20006;-60
2022/09/12 02:32:04;;;;;;;;;;;13.60;99.90;;;;;;4898680;29;19998;-60
2022/09/12 02:34:31;;;;;;;;;;;;;;;;;;4898599;29;19947;-61
2022/09/12 02:37:00;;;;;;;;;;;14.10;99.90;;;;;;4897097;29;19955;-60
2022/09/12 02:39:26;;;;;;;;;;;;;;;;;;4897764;29;19949;-60
2022/09/12 02:41:54;;;;;;;;;;;14.10;99.90;;;;;;4898298;29;20336;-60
2022/09/12 02:44:20;;;;;;;;;;;;;;;;;;4897661;29;19970;-60
2022/09/12 02:46:46;;;;;;;;;;;;;;;;;;4898304;29;20279;-60
2022/09/12 02:49:12;;;;;;;;;;;;;;;;;;4898096;29;19923;-60
2022/09/12 02:51:38;;;;;;;;;;;13.70;99.90;;;;;;4896199;29;19926;-61
2022/09/12 02:54:06;;;;;;;;;;;14.00;99.90;;;;;;4930923;23;19942;-61
2022/09/12 02:59:08;;;;;;;;;;;14.00;99.90;;;;;;4877479;29;19976;-60
2022/09/12 03:01:33;;;;;;;;;;;13.90;99.90;;;;;;4853317;29;19924;-60
2022/09/12 03:03:59;;;;;;;;;;;;;;;;;;4863086;29;19927;-61
2022/09/12 03:06:31;;;;;;;;;;;13.90;99.90;;;;;;4867335;29;19924;-60
2022/09/12 03:09:05;;;;;;;;;;;13.60;99.90;;;;;;4889377;29;19923;-60
2022/09/12 03:11:33;;;;;;;;;;;14.10;99.90;;;;;;4867380;29;19927;-61
2022/09/12 03:14:05;;;;;;;;;;;13.90;99.90;;;;;;4872455;29;20300;-60
2022/09/12 03:16:33;;;;;;;;;;;13.70;99.90;;;;;;4883530;29;19924;-61
2022/09/12 03:18:59;;;;;;;;;;;;;;;;;;4861623;29;19975;-60
2022/09/12 03:21:25;;;;;;;;;;;;;;;;;;4859960;29;20023;-60
2022/09/12 03:24:20;;;;;;;;;;;14.00;99.90;;;;;;4873668;29;20402;-61
2022/09/12 03:26:54;;;;;;;;;;;14.30;99.90;;;;;;4869255;29;20075;-61
2022/09/12 03:29:20;;;;;;;;;;;;;;;;;;4856624;29;19932;-60
2022/09/12 03:31:50;;;;;;;;;;;14.00;99.90;;;;;;4884407;29;20011;-61
2022/09/12 03:34:15;;;;;;;;;;;13.80;99.90;;;;;;4860567;29;20309;-60
2022/09/12 03:36:41;;;;;;;;;;;13.90;99.90;;;;;;4870685;29;19924;-61
2022/09/12 03:39:07;;;;;;;;;;;;;;;;;;4883033;29;20003;-60
2022/09/12 03:41:32;;;;;;;;;;;13.70;99.90;;;;;;4879034;29;19923;-61
2022/09/12 03:43:58;;;;;;;;;;;13.80;99.90;;;;;;4872132;29;19924;-60
2022/09/12 03:46:23;;;;;;;;;;;13.60;99.90;;;;;;4858727;29;19930;-60
2022/09/12 03:48:49;;;;;;;;;;;;;;;;;;4869491;29;19932;-60
2022/09/12 03:51:15;;;;;;;;;;;13.80;99.90;;;;;;4872922;29;19924;-60
2022/09/12 03:53:41;;;;;;;;;;;;;;;;;;4874456;29;19927;-60
2022/09/12 03:56:07;;;;;;;;;;;13.60;99.90;;;;;;4895498;29;19927;-60
2022/09/12 03:58:35;;;;;;;;;;;14.20;99.90;;;;;;4859524;29;19924;-60
2022/09/12 04:01:05;;;;;;;;;;;14.00;99.90;;;;;;4857429;29;19924;-60
2022/09/12 04:03:31;;;;;;;;;;;13.90;99.90;;;;;;4868052;29;19923;-61
2022/09/12 04:05:56;;;;;;;;;;;;;;;;;;4892723;29;19938;-60
2022/09/12 04:08:22;;;;;;;;;;;13.80;99.90;;;;;;4893296;29;19934;-60
2022/09/12 04:10:47;;;;;;;;;;;13.40;99.90;;;;;;4879827;29;19924;-61
2022/09/12 04:13:13;;;;;;;;;;;13.70;99.90;;;;;;4877441;29;19972;-62
2022/09/12 04:15:38;;;;;;;;;;;13.90;99.90;;;;;;4871869;29;20421;-60
2022/09/12 04:18:04;;;;;;;;;;;13.80;99.90;;;;;;4874228;29;19923;-60
2022/09/12 04:20:29;;;;;;;;;;;14.00;99.90;;;;;;4874764;29;20373;-61
2022/09/12 04:22:55;;;;;;;;;;;14.10;99.90;;;;;;4877392;29;19923;-60
2022/09/12 04:25:22;;;;;;;;;;;;;;;;;;4887962;29;19930;-59
2022/09/12 04:27:48;;;;;;;;;;;;;;;;;;4875583;29;20030;-59
2022/09/12 04:30:14;;;;;;;;;;;;;;;;;;4888836;29;20021;-60
2022/09/12 04:32:40;;;;;;;;;;;14.00;99.90;;;;;;4863280;29;19928;-59
2022/09/12 04:35:05;;;;;;;;;;;13.90;99.90;;;;;;4861403;29;19931;-59
2022/09/12 04:37:31;;;;;;;;;;;14.00;99.90;;;;;;4872649;29;20384;-60
2022/09/12 04:39:58;;;;;;;;;;;;;;;;;;4867857;29;20389;-60
2022/09/12 04:42:25;;;;;;;;;;;14.40;99.90;;;;;;4887233;29;19928;-60
2022/09/12 04:44:50;;;;;;;;;;;14.10;99.90;;;;;;4870294;29;19930;-60
2022/09/12 04:47:16;;;;;;;;;;;14.00;99.90;;;;;;4870995;29;19924;-59
2022/09/12 04:49:41;;;;;;;;;;;14.10;99.90;;;;;;4876162;29;19994;-59
2022/09/12 04:52:07;;;;;;;;;;;14.20;99.90;;;;;;4866436;29;19930;-59
2022/09/12 04:54:33;;;;;;;;;;;14.30;99.90;;;;;;4836527;29;20018;-59
2022/09/12 04:56:58;;;;;;;;;;;14.30;99.90;;;;;;4872304;29;19928;-59
2022/09/12 04:59:25;;;;;;;;;;;;;;;;;;4855959;29;19942;-61
2022/09/12 05:01:50;;;;;;;;;;;14.20;99.90;;;;;;4875773;29;19924;-60
2022/09/12 05:04:16;;;;;;;;;;;13.90;99.90;;;;;;4877789;29;19930;-60
2022/09/12 05:06:42;;;;;;;;;;;14.50;99.90;;;;;;4876596;29;19962;-60
2022/09/12 05:09:10;;;;;;;;;;;14.00;99.90;;;;;;4876608;29;19924;-60
2022/09/12 05:11:37;;;;;;;;;;;14.40;99.90;;;;;;4856476;29;20334;-60
2022/09/12 05:14:02;;;;;;;;;;;14.70;99.90;;;;;;4865064;29;19930;-60
2022/09/12 05:16:28;;;;;;;;;;;;;;;;;;4846409;29;20007;-61
2022/09/12 05:18:55;;;;;;;;;;;14.20;99.90;;;;;;4874299;29;19924;-60
2022/09/12 05:21:24;;;;;;;;;;;;;;;;;;4877078;29;20346;-60
2022/09/12 05:23:50;;;;;;;;;;;;;;;;;;4877170;29;19935;-60
2022/09/12 05:26:16;;;;;;;;;;;;;;;;;;4874895;29;19928;-60
2022/09/12 05:28:42;;;;;;;;;;;14.00;99.90;;;;;;4873598;29;19965;-60
2022/09/12 05:31:08;;;;;;;;;;;;;;;;;;4884542;29;19931;-60
2022/09/12 05:33:34;;;;;;;;;;;14.40;99.90;;;;;;4877663;29;19923;-60
2022/09/12 05:36:00;;;;;;;;;;;14.70;99.90;;;;;;4893616;29;20312;-60
2022/09/12 05:38:28;;;;;;;;;;;;;;;;;;4873730;29;19927;-60
2022/09/12 05:41:02;;;;;;;;;;;14.40;99.90;;;;;;4892503;29;19924;-60
2022/09/12 05:43:28;;;;;;;;;;;;;;;;;;4870082;29;19947;-60
2022/09/12 05:45:59;;;;;;;;;;;14.60;99.90;;;;;;4892169;29;19980;-60
2022/09/12 05:48:25;;;;;;;;;;;;;;;;;;4880524;29;19923;-60
2022/09/12 05:50:50;;;;;;;;;;;14.60;99.90;;;;;;4880970;29;20329;-60
2022/09/12 05:53:16;;;;;;;;;;;14.40;99.90;;;;;;4883960;29;19928;-60
2022/09/12 05:55:41;;;;;;;;;;;14.70;99.90;;;;;;4881142;29;20058;-60
2022/09/12 05:58:07;;;;;;;;;;;;;;;;;;4870493;29;20366;-60
2022/09/12 06:00:33;;;;;;;;;;;14.60;99.90;;;;;;4856533;29;20365;-60
2022/09/12 06:03:00;;;;;;;;;;;;;;;;;;4877882;29;19930;-60
2022/09/12 06:05:26;;;;;;;;;;;;;;;;;;4881278;29;20014;-61
2022/09/12 06:07:52;;;;;;;;;;;;;;;;;;4863533;29;20019;-60
2022/09/12 06:10:17;;;;;;;;;;;14.80;99.90;;;;;;4887893;29;19923;-60
2022/09/12 06:12:43;;;;;;;;;;;;;;;;;;4885257;29;19931;-60
2022/09/12 06:15:09;;;;;;;;;;;15.20;99.90;;;;;;4898969;29;20418;-60
2022/09/12 06:17:35;;;;;;;;;;;15.20;99.90;;;;;;4885121;29;20002;-60
2022/09/12 06:20:00;;;;;;;;;;;15.10;99.90;;;;;;4874710;29;19924;-60
2022/09/12 06:22:26;;;;;;;;;;;;;;;;;;4896270;29;20436;-60
2022/09/12 06:24:52;;;;;;;;;;;14.80;99.90;;;;;;4871931;29;19924;-60
2022/09/12 06:27:17;;;;;;;;;;;14.80;99.90;;;;;;4895904;29;20010;-60
2022/09/12 06:29:43;;;;;;;;;;;15.20;99.90;;;;;;4895888;29;20003;-60
2022/09/12 06:32:09;;;;;;;;;;;;;;;;;;4872600;29;20336;-61
2022/09/12 06:34:35;;;;;;;;;;;15.40;99.90;;;;;;4866686;29;19928;-60
2022/09/12 06:37:02;;;;;;;;;;;15.20;99.90;;;;;;4851604;29;19972;-60
2022/09/12 06:39:29;;;;;;;;;;;;;;;;;;4880889;29;19968;-61
2022/09/12 06:41:55;;;;;;;;;;;15.20;99.90;;;;;;4885147;29;19936;-60
2022/09/12 06:44:21;;;;;;;;;;;15.60;99.90;;;;;;4859023;29;20010;-60
2022/09/12 06:46:47;;;;;;;;;;;15.70;99.90;;;;;;4890737;29;20379;-60
2022/09/12 06:49:13;;;;;;;;;;;15.80;99.90;;;;;;4883565;29;19923;-60
2022/09/12 06:51:40;;;;;;;;;;;15.40;99.90;;;;;;4880042;29;20292;-60
2022/09/12 06:54:06;;;;;;;;;;;;;;;;;;4886706;29;19934;-61
2022/09/12 06:56:32;;;;;;;;;;;15.60;99.90;;;;;;4890636;29;19923;-60
2022/09/12 06:58:58;;;;;;;;;;;;;;;;;;4877164;29;20274;-60
2022/09/12 07:01:25;;;;;;;;;;;15.30;99.90;;;;;;4861878;29;19931;-60
2022/09/12 07:03:51;;;;;;;;;;;;;;;;;;4889444;29;19923;-60
2022/09/12 07:06:17;;;;;;;;;;;;;;;;;;4896063;29;20347;-60
2022/09/12 07:08:43;;;;;;;;;;;15.60;99.90;;;;;;4876387;29;19974;-60
2022/09/12 07:11:10;;;;;;;;;;;15.90;99.90;;;;;;4880214;29;19924;-60
2022/09/12 07:13:36;;;;;;;;;;;;;;;;;;4897554;23;19931;-61
2022/09/12 07:16:02;;;;;;;;;;;15.60;99.90;;;;;;4908770;29;19927;-60
2022/09/12 07:18:28;;;;;;;;;;;15.90;99.90;;;;;;4917413;23;19981;-61
2022/09/12 07:20:54;;;;;;;;;;;15.50;99.90;;;;;;4897991;29;19927;-60
2022/09/12 07:23:19;;;;;;;;;;;;;;;;;;4898641;29;19927;-60
2022/09/12 07:25:55;;;;;;;;;;;15.60;99.90;;;;;;4901263;29;19923;-60
2022/09/12 07:28:22;;;;;;;;;;;;;;;;;;4912630;29;19923;-61
2022/09/12 07:30:47;;;;;;;;;;;16.10;99.90;;;;;;4880650;29;20369;-60
2022/09/12 07:33:13;;;;;;;;;;;;;;;;;;4898128;29;19923;-60
2022/09/12 07:35:39;;;;;;;;;;;16.10;99.90;;;;;;4894131;23;19923;-60
2022/09/12 07:38:04;;;;;;;;;;;16.00;99.90;;;;;;4897886;23;19934;-60
2022/09/12 07:40:30;;;;;;;;;;;16.10;99.90;;;;;;4913322;23;19924;-60
2022/09/12 07:42:55;;;;;;;;;;;15.90;99.90;;;;;;4894436;29;20382;-60
2022/09/12 07:45:21;;;;;;;;;;;16.40;99.90;;;;;;4895707;29;19923;-65
2022/09/12 07:47:47;;;;;;;;;;;;;;;;;;4878648;29;20807;-61
2022/09/12 07:50:12;;;;;;;;;;;16.10;99.90;;;;;;4878669;29;19924;-60
2022/09/12 07:52:38;;;;;;;;;;;16.80;99.90;;;;;;4895505;29;20464;-61
2022/09/12 07:55:04;;;;;;;;;;;;;;;;;;4894764;29;20018;-61
2022/09/12 07:57:30;;;;;;;;;;;;;;;;;;4895332;29;19930;-61
2022/09/12 07:59:55;;;;;;;;;;;16.70;99.90;;;;;;4881266;29;19945;-61
2022/09/12 08:02:21;;;;;;;;;;;16.90;99.90;;;;;;4889471;29;20291;-61
2022/09/12 08:04:47;;;;;;;;;;;;;;;;;;4895777;29;19934;-61
2022/09/12 08:07:13;;;;;;;;;;;16.90;99.90;;;;;;4896289;29;20018;-60
2022/09/12 08:09:39;;;;;;;;;;;;;;;;;;4896244;29;20022;-61
2022/09/12 08:12:05;;;;;;;;;;;17.30;99.90;;;;;;4898643;29;20388;-61
2022/09/12 08:14:31;;;;;;;;;;;;;;;;;;4902868;29;19927;-61
2022/09/12 08:16:57;;;;;;;;;;;;;;;;;;4910750;29;19923;-60
2022/09/12 08:19:22;;;;;;;;;;;17.80;99.90;;;;;;4896697;29;20014;-60
2022/09/12 08:21:48;;;;;;;;;;;17.80;99.90;;;;;;4898579;29;19997;-60
2022/09/12 08:24:14;;;;;;;;;;;17.60;99.90;;;;;;4910346;29;20372;-61
2022/09/12 08:26:40;;;;;;;;;;;;;;;;;;4906525;29;19927;-61
2022/09/12 08:29:06;;;;;;;;;;;18.30;99.90;;;;;;4883534;29;20448;-61
2022/09/12 08:31:35;;;;;;;;;;;;;;;;;;4896450;29;19923;-62
2022/09/12 08:34:01;;;;;;;;;;;18.40;99.90;;;;;;4878573;29;19935;-59
2022/09/12 08:36:27;;;;;;;;;;;18.80;99.90;;;;;;4896384;29;19959;-61
2022/09/12 08:38:56;;;;;;;;;;;18.90;99.90;;;;;;4879012;29;19930;-60
2022/09/12 08:41:26;;;;;;;;;;;18.90;99.90;;;;;;4894670;29;19924;-60
2022/09/12 08:43:52;;;;;;;;;;;19.00;99.90;;;;;;4876994;29;20368;-61
2022/09/12 08:46:21;;;;;;;;;;;18.80;99.90;;;;;;4895814;29;19930;-61
2022/09/12 08:48:47;;;;;;;;;;;19.20;99.90;;;;;;4896386;29;20191;-62
2022/09/12 08:51:15;;;;;;;;;;;19.30;99.90;;;;;;4878595;29;20019;-61
2022/09/12 08:53:41;;;;;;;;;;;;;;;;;;4884265;29;20002;-62
2022/09/12 08:56:10;;;;;;;;;;;19.20;99.90;;;;;;4880342;29;19973;-61
2022/09/12 08:58:39;;;;;;;;;;;19.50;99.90;;;;;;4896051;29;19923;-62
2022/09/12 09:01:10;;;;;;;;;;;19.50;99.90;;;;;;4896167;29;20014;-61
2022/09/12 09:03:55;;;;;;;;;;;19.60;99.90;;;;;;4894935;29;20027;-62
2022/09/12 09:06:32;;;;;;;;;;;19.60;99.90;;;;;;4897089;29;19934;-60
2022/09/12 09:09:05;;;;;;;;;;;19.50;99.90;;;;;;4894743;29;19927;-60
2022/09/12 09:11:36;;;;;;;;;;;19.70;99.90;;;;;;4879907;29;20388;-59
2022/09/12 09:15:04;;;;;;;;;;;;;;;;;;4896920;29;19931;-58
2022/09/12 09:16:57;;;;;;;;;;;;;;;;;;4886680;29;20005;-60
2022/09/12 09:19:23;;;;;;;;;;;;;;;;;;4891704;29;19927;-59
2022/09/12 09:21:52;;;;;;;;;;;20.00;99.90;;;;;;4896402;29;19985;-58
2022/09/12 09:24:20;;;;;;;;;;;20.00;99.90;;;;;;4899316;29;20407;-59
2022/09/12 09:26:51;;;;;;;;;;;20.10;99.90;;;;;;4899407;29;20443;-58
2022/09/12 09:29:21;;;;;;;;;;;20.20;99.90;;;;;;4898163;29;19931;-59
2022/09/12 09:31:48;;;;;;;;;;;20.40;99.90;;;;;;4892709;29;19947;-59
2022/09/12 09:34:21;;;;;;;;;;;20.80;99.90;;;;;;4883228;29;19923;-58
2022/09/12 09:37:01;;;;;;;;;;;20.70;99.90;;;;;;4896236;29;20303;-58
2022/09/12 09:39:27;;;;;;;;;;;20.60;99.90;;;;;;4897531;29;19952;-58
2022/09/12 09:42:08;;;;;;;;;;;20.70;99.90;;;;;;4897689;29;19931;-58
2022/09/12 09:44:33;;;;;;;;;;;20.50;99.90;;;;;;4908709;29;19927;-58
2022/09/12 09:46:59;;;;;;;;;;;20.70;99.90;;;;;;4903558;29;19938;-58
2022/09/12 09:49:30;;;;;;;;;;;20.40;99.90;;;;;;4897886;29;20367;-58
2022/09/12 09:51:56;;;;;;;;;;;20.90;99.90;;;;;;4898125;29;20022;-58
2022/09/12 09:54:27;;;;;;;;;;;21.10;99.90;;;;;;4867442;29;19923;-58
2022/09/12 09:56:54;;;;;;;;;;;21.40;99.90;;;;;;4895156;29;19923;-58
2022/09/12 09:59:29;;;;;;;;;;;21.20;99.90;;;;;;4898424;29;19927;-59
2022/09/12 10:01:57;;;;;;;;;;;21.00;99.90;;;;;;4898479;29;20273;-58
2022/09/12 10:04:24;;;;;;;;;;;21.40;99.90;;;;;;4897763;29;19927;-58
2022/09/12 10:06:55;;;;;;;;;;;21.40;99.90;;;;;;4898232;29;19927;-59
2022/09/12 10:09:22;;;;;;;;;;;21.00;99.90;;;;;;4894037;29;20014;-59
2022/09/12 10:11:49;;;;;;;;;;;21.00;99.90;;;;;;4897702;29;19923;-59
2022/09/12 10:14:26;;;;;;;;;;;21.10;99.90;;;;;;4897711;29;19927;-59
2022/09/12 10:16:52;;;;;;;;;;;21.30;99.90;;;;;;4898274;29;20345;-58
2022/09/12 10:19:33;;;;;;;;;;;21.70;99.90;;;;;;4898112;29;20010;-58
2022/09/12 10:21:59;;;;;;;;;;;22.00;99.90;;;;;;4865517;29;19931;-58
2022/09/12 10:24:31;;;;;;;;;;;21.80;99.90;;;;;;4897257;29;19947;-60
2022/09/12 10:27:04;;;;;;;;;;;21.80;99.90;;;;;;4896195;29;19924;-59
2022/09/12 10:29:32;;;;;;;;;;;21.80;99.90;;;;;;4898415;29;19935;-59
2022/09/12 10:32:07;;;;;;;;;;;21.90;99.90;;;;;;4897561;29;20014;-57
2022/09/12 10:34:35;;;;;;;;;;;22.00;99.90;;;;;;4896548;29;20399;-59
2022/09/12 10:37:02;;;;;;;;;;;22.30;99.90;;;;;;4897156;29;20018;-61
2022/09/12 10:39:28;;;;;;;;;;;22.10;99.90;;;;;;4896512;29;19924;-61
2022/09/12 10:41:54;;;;;;;;;;;22.60;99.90;;;;;;4879368;29;19931;-60
2022/09/12 10:44:26;;;;;;;;;;;22.60;99.90;;;;;;4896058;29;19930;-61
2022/09/12 10:46:53;;;;;;;;;;;22.60;99.90;;;;;;4896491;29;19927;-60
2022/09/12 10:49:20;;;;;;;;;;;23.10;99.90;;;;;;4894031;29;19946;-60
2022/09/12 10:51:46;;;;;;;;;;;23.10;99.90;;;;;;4911918;29;19923;-60
2022/09/12 10:54:16;;;;;;;;;;;23.10;99.90;;;;;;4896824;29;19931;-60
2022/09/12 10:56:57;;;;;;;;;;;23.50;99.90;;;;;;4896180;29;20027;-59
2022/09/12 10:59:41;;;;;;;;;;;23.10;99.90;;;;;;4896515;29;19967;-59
2022/09/12 11:02:26;;;;;;;;;;;23.40;99.90;;;;;;4896987;29;19923;-57
2022/09/12 11:05:10;;;;;;;;;;;23.60;99.90;;;;;;4880298;29;20006;-61
2022/09/12 11:07:54;;;;;;;;;;;23.50;99.90;;;;;;4893107;29;19924;-58
2022/09/12 11:10:40;;;;;;;;;;;23.40;99.90;;;;;;4897626;29;20394;-61
2022/09/12 11:13:12;;;;;;;;;;;23.60;99.90;;;;;;4870768;29;19923;-62
2022/09/12 11:15:46;;;;;;;;;;;23.70;99.90;;;;;;4880935;29;19962;-64
2022/09/12 11:18:15;;;;;;;;;;;23.30;99.90;;;;;;4896094;29;20065;-57
2022/09/12 11:21:03;;;;;;;;;;;23.60;99.90;;;;;;4897211;29;20396;-58
2022/09/12 11:23:41;;;;;;;;;;;23.70;99.90;;;;;;4896404;29;20360;-61
2022/09/12 11:26:19;;;;;;;;;;;23.70;99.90;;;;;;4895728;29;19923;-58
2022/09/12 11:28:50;;;;;;;;;;;24.00;99.90;;;;;;4893434;29;19938;-58
2022/09/12 11:31:28;;;;;;;;;;;23.70;99.90;;;;;;4895547;29;20434;-57
2022/09/12 11:33:56;;;;;;;;;;;24.00;99.90;;;;;;4891851;29;19927;-58
2022/09/12 11:36:21;;;;;;;;;;;23.90;99.90;;;;;;4878700;29;19923;-57
2022/09/12 11:38:51;;;;;;;;;;;23.90;99.90;;;;;;4895189;29;19927;-58
2022/09/12 11:41:24;;;;;;;;;;;24.10;99.90;;;;;;4897720;29;19923;-58
2022/09/12 11:47:12;;;;;;;;;;;24.40;99.90;;;;;;4814579;23;19982;-58
2022/09/12 11:49:40;;;;;;;;;;;26.90;99.90;;;;;;4824093;29;19924;-58
2022/09/12 11:52:12;;;;;;;;;;;26.50;99.90;;;;;;4808201;29;19928;-59
2022/09/12 11:54:43;;;;;;;;;;;24.50;99.90;;;;;;4823059;29;20344;-57
2022/09/12 11:57:15;;;;;;;;;;;24.40;99.90;;;;;;4831596;29;19925;-59
2022/09/12 11:59:43;;;;;;;;;;;24.40;99.90;;;;;;4823733;29;19925;-58
2022/09/12 12:02:16;;;;;;;;;;;24.30;99.90;;;;;;4823077;29;19925;-59
2022/09/12 12:04:54;;;;;;;;;;;24.40;99.90;;;;;;4822712;29;19981;-59
2022/09/12 12:07:20;;;;;;;;;;;24.50;99.90;;;;;;4808292;29;19932;-59
2022/09/12 12:09:48;;;;;;;;;;;24.60;99.90;;;;;;4806274;29;20357;-61
2022/09/12 12:12:16;;;;;;;;;;;24.50;99.90;;;;;;4806040;29;19932;-60
2022/09/12 12:14:43;;;;;;;;;;;25.70;99.90;;;;;;4802622;29;20526;-60
2022/09/12 12:17:14;;;;;;;;;;;24.60;99.90;;;;;;4808700;29;20143;-59
2022/09/12 12:19:40;;;;;;;;;;;24.70;99.90;;;;;;4823594;29;20442;-59
2022/09/12 12:22:11;;;;;;;;;;;24.90;99.90;;;;;;4822818;29;19928;-60
2022/09/12 12:24:53;;;;;;;;;;;25.00;99.90;;;;;;4807050;29;19925;-59
2022/09/12 12:27:23;;;;;;;;;;;24.70;99.90;;;;;;4822969;29;20416;-60
2022/09/12 12:29:48;;;;;;;;;;;24.40;99.90;;;;;;4822513;29;19925;-60
2022/09/12 12:32:19;;;;;;;;;;;24.40;99.90;;;;;;4821133;29;19932;-59
2022/09/12 12:34:45;;;;;;;;;;;24.50;99.90;;;;;;4823092;29;19924;-59
2022/09/12 12:37:20;;;;;;;;;;;24.80;99.90;;;;;;4823673;29;20263;-59
2022/09/12 12:39:46;;;;;;;;;;;24.70;99.90;;;;;;4823288;29;19932;-59
2022/09/12 12:42:31;;;;;;;;;;;24.80;99.90;;;;;;4818966;29;19929;-62
2022/09/12 12:44:56;;;;;;;;;;;24.70;99.90;;;;;;4822222;29;19925;-58
2022/09/12 12:47:24;;;;;;;;;;;24.90;99.90;;;;;;4825145;29;20027;-59
2022/09/12 12:49:51;;;;;;;;;;;24.90;99.90;;;;;;4823253;29;19929;-59
2022/09/12 12:52:17;;;;;;;;;;;24.90;99.90;;;;;;4817145;29;19932;-60
2022/09/12 12:54:42;;;;;;;;;;;24.70;99.90;;;;;;4835066;29;19928;-60
2022/09/12 12:57:14;;;;;;;;;;;24.90;99.90;;;;;;4821276;29;19925;-59
2022/09/12 12:59:58;;;;;;;;;;;24.80;99.90;;;;;;4818820;29;19981;-58
2022/09/12 13:02:25;;;;;;;;;;;24.60;99.90;;;;;;4822679;29;19940;-64
2022/09/12 13:04:52;;;;;;;;;;;25.10;99.90;;;;;;4819657;29;19975;-62
2022/09/12 13:07:26;;;;;;;;;;;25.10;99.90;;;;;;4806245;29;19941;-64
2022/09/12 13:09:53;;;;;;;;;;;25.30;99.90;;;;;;4825536;29;19925;-63
2022/09/12 13:12:24;;;;;;;;;;;25.30;99.90;;;;;;4823929;29;19937;-61
2022/09/12 13:14:52;;;;;;;;;;;25.20;99.90;;;;;;4837513;29;20390;-62
2022/09/12 13:17:36;;;;;;;;;;;25.30;99.90;;;;;;4823794;29;19973;-63
2022/09/12 13:20:22;;;;;;;;;;;25.30;99.90;;;;;;4834007;29;20023;-60
2022/09/12 13:22:49;;;;;;;;;;;25.00;99.90;;;;;;4825453;29;20461;-60
2022/09/12 13:25:18;;;;;;;;;;;25.90;99.90;;;;;;4826531;29;19948;-61
2022/09/12 13:28:17;;;;;;;;;;;25.40;99.90;;;;;;4825078;29;20398;-60
2022/09/12 13:31:01;;;;;;;;;;;24.90;99.90;;;;;;4788017;29;19925;-62
2022/09/12 13:33:39;;;;;;;;;;;25.00;99.90;;;;;;4826456;29;20023;-61
2022/09/12 13:36:20;;;;;;;;;;;25.20;99.90;;;;;;4822641;29;20045;-61
2022/09/12 13:38:46;;;;;;;;;;;25.20;99.90;;;;;;4820594;29;19925;-60
2022/09/12 13:41:20;;;;;;;;;;;25.50;99.90;;;;;;4824553;29;19931;-62
2022/09/12 13:43:46;;;;;;;;;;;25.40;99.90;;;;;;4825762;29;20310;-59
2022/09/12 13:46:15;;;;;;;;;;;25.00;99.90;;;;;;4814463;29;19925;-59
2022/09/12 13:48:41;;;;;;;;;;;25.20;99.90;;;;;;4844318;29;19929;-60
2022/09/12 13:51:07;;;;;;;;;;;25.30;99.90;;;;;;4844534;29;19946;-61
2022/09/12 13:53:44;;;;;;;;;;;25.30;99.90;;;;;;4844144;29;20374;-64
2022/09/12 13:56:17;;;;;;;;;;;25.30;99.90;;;;;;4838686;29;19932;-60
2022/09/12 13:58:59;;;;;;;;;;;25.30;99.90;;;;;;4842252;29;19924;-60
2022/09/12 14:01:37;;;;;;;;;;;25.70;99.90;;;;;;4824091;29;19928;-60
2022/09/12 14:07:00;;;;;;;;;;;25.20;99.90;;;;;;4819344;29;19932;-62
2022/09/12 14:09:27;;;;;;;;;;;25.40;99.90;;;;;;4854221;29;19939;-61
2022/09/12 14:11:54;;;;;;;;;;;25.50;99.90;;;;;;4843913;29;19929;-62
2022/09/12 14:14:26;;;;;;;;;;;25.30;99.90;;;;;;4843758;29;19928;-61
2022/09/12 14:16:52;;;;;;;;;;;25.00;99.90;;;;;;4842015;29;19954;-61
2022/09/12 14:19:18;;;;;;;;;;;25.00;99.90;;;;;;4827363;29;19925;-60
2022/09/12 14:21:46;;;;;;;;;;;26.70;99.90;;;;;;4834167;29;20011;-58
2022/09/12 14:24:13;;;;;;;;;;;24.90;99.90;;;;;;4839934;29;19928;-59
2022/09/12 14:26:41;;;;;;;;;;;25.20;99.90;;;;;;4826307;29;22042;-61
2022/09/12 14:29:07;;;;;;;;;;;24.80;99.90;;;;;;4856174;29;20381;-58
2022/09/12 14:31:37;;;;;;;;;;;24.70;99.90;;;;;;4843581;29;19994;-63
2022/09/12 14:34:13;;;;;;;;;;;24.80;99.90;;;;;;4839548;29;19935;-60
2022/09/12 14:36:41;;;;;;;;;;;24.90;99.90;;;;;;4837898;29;20354;-62
2022/09/12 14:39:15;;;;;;;;;;;24.70;99.90;;;;;;4821697;29;19937;-61
2022/09/12 14:41:42;;;;;;;;;;;24.90;99.90;;;;;;4841274;29;20366;-63
2022/09/12 14:44:09;;;;;;;;;;;25.90;99.90;;;;;;4840670;29;19925;-62
2022/09/12 14:46:36;;;;;;;;;;;24.90;99.90;;;;;;4842888;29;20385;-61
2022/09/12 14:49:16;;;;;;;;;;;25.80;99.90;;;;;;4842792;29;20011;-62
2022/09/12 14:52:02;;;;;;;;;;;24.90;99.90;;;;;;4841968;29;19928;-62
2022/09/12 14:54:28;;;;;;;;;;;24.80;99.90;;;;;;4841992;29;19973;-64
2022/09/12 14:56:55;;;;;;;;;;;24.80;99.90;;;;;;4841925;29;19932;-62
2022/09/12 14:59:27;;;;;;;;;;;24.70;99.90;;;;;;4826507;29;19928;-62
2022/09/12 15:02:11;;;;;;;;;;;24.40;99.90;;;;;;4841463;29;20315;-62
2022/09/12 15:04:38;;;;;;;;;;;24.40;99.90;;;;;;4845649;29;19973;-62
2022/09/12 15:07:26;;;;;;;;;;;25.40;99.90;;;;;;4838487;29;19997;-61